createdAt,value
2022-09-30T00:00:35.046Z,99506.13
2022-09-30T00:03:01.770Z,99508.50
2022-09-30T00:05:28.374Z,99502.94
2022-09-30T00:07:55.215Z,99480.34
2022-09-30T00:10:22.029Z,99474.09
2022-09-30T00:12:48.510Z,99476.13
2022-09-30T00:15:15.101Z,99477.47
2022-09-30T00:17:41.624Z,99467.19
2022-09-30T00:20:08.502Z,99455.19
2022-09-30T00:22:35.412Z,99462.75
2022-09-30T00:25:02.487Z,99463.59
2022-09-30T00:27:29.036Z,99469.69
2022-09-30T00:29:55.835Z,99462.94
2022-09-30T00:32:22.322Z,99458.19
2022-09-30T00:34:48.854Z,99454.31
2022-09-30T00:37:16.795Z,99466.63
2022-09-30T00:39:43.306Z,99457.84
2022-09-30T00:42:14.728Z,99457.84
2022-09-30T00:44:55.038Z,99456.84
2022-09-30T00:47:33.254Z,99446.91
2022-09-30T00:50:05.923Z,99431.72
2022-09-30T00:52:32.866Z,99432.38
2022-09-30T00:55:02.886Z,99435.94
2022-09-30T00:57:29.769Z,99439.44
2022-09-30T00:59:56.478Z,99433.88
2022-09-30T01:02:24.227Z,99434.72
2022-09-30T01:04:50.864Z,99442.16
2022-09-30T01:07:18.059Z,99446.72
2022-09-30T01:09:45.211Z,99461.72
2022-09-30T01:12:19.030Z,99453.59
2022-09-30T01:14:47.499Z,99448.56
2022-09-30T01:17:32.159Z,99463.41
2022-09-30T01:20:53.206Z,99467.78
2022-09-30T01:23:47.547Z,99460.53
2022-09-30T01:26:38.070Z,99443.66
2022-09-30T01:29:32.483Z,99443.50
2022-09-30T01:31:59.622Z,99466.44
2022-09-30T01:34:38.405Z,99465.75
2022-09-30T01:37:22.492Z,99474.53
2022-09-30T01:40:10.139Z,99478.59
2022-09-30T01:43:04.374Z,99476.38
2022-09-30T01:45:47.272Z,99463.91
2022-09-30T01:48:32.682Z,99438.41
2022-09-30T01:51:05.246Z,99430.13
2022-09-30T01:53:50.859Z,99438.91
2022-09-30T01:56:23.766Z,99446.63
2022-09-30T01:59:16.261Z,99434.00
2022-09-30T02:01:58.684Z,99438.22
2022-09-30T02:04:31.741Z,99436.38
2022-09-30T02:07:03.982Z,99428.44
2022-09-30T02:09:38.721Z,99412.91
2022-09-30T02:12:10.597Z,99404.81
2022-09-30T02:14:46.283Z,99412.72
2022-09-30T02:17:20.354Z,99411.91
2022-09-30T02:19:58.702Z,99420.66
2022-09-30T02:22:31.390Z,99433.81
2022-09-30T02:25:03.795Z,99444.63
2022-09-30T02:27:41.085Z,99450.84
2022-09-30T02:30:09.577Z,99456.09
2022-09-30T02:32:42.286Z,99454.03
2022-09-30T02:35:32.314Z,99427.03
2022-09-30T02:38:03.679Z,99422.00
2022-09-30T02:40:30.179Z,99402.06
2022-09-30T02:42:57.583Z,99412.53
2022-09-30T02:45:24.495Z,99408.13
2022-09-30T02:48:07.839Z,99407.31
2022-09-30T02:50:43.314Z,99401.53
2022-09-30T02:53:33.482Z,99408.81
2022-09-30T02:56:14.634Z,99401.38
2022-09-30T02:58:43.547Z,99393.09
2022-09-30T03:01:12.797Z,99402.22
2022-09-30T03:03:53.879Z,99386.84
2022-09-30T03:06:20.686Z,99386.66
2022-09-30T03:08:47.792Z,99379.41
2022-09-30T03:11:19.468Z,99375.69
2022-09-30T03:14:09.130Z,99377.72
2022-09-30T03:17:09.582Z,99379.72
2022-09-30T03:20:10.154Z,99391.53
2022-09-30T03:23:10.594Z,99392.56
2022-09-30T03:26:14.712Z,99416.88
2022-09-30T03:29:14.177Z,99417.88
2022-09-30T03:32:05.812Z,99415.53
2022-09-30T03:34:57.796Z,99439.84
2022-09-30T03:37:49.259Z,99426.16
2022-09-30T03:40:23.393Z,99401.69
2022-09-30T03:43:18.811Z,99411.47
2022-09-30T03:46:01.211Z,99426.66
2022-09-30T03:48:29.890Z,99421.25
2022-09-30T03:50:57.066Z,99416.88
2022-09-30T03:53:26.186Z,99414.16
2022-09-30T03:55:53.014Z,99417.22
2022-09-30T03:58:23.303Z,99404.56
2022-09-30T04:00:53.052Z,99405.56
2022-09-30T04:03:21.658Z,99414.53
2022-09-30T04:05:48.960Z,99412.81
2022-09-30T04:08:16.233Z,99422.81
2022-09-30T04:10:44.102Z,99417.41
2022-09-30T04:13:12.007Z,99426.31
2022-09-30T04:15:39.088Z,99432.41
2022-09-30T04:18:06.271Z,99424.31
2022-09-30T04:20:33.503Z,99419.06
2022-09-30T04:23:01.157Z,99413.84
2022-09-30T04:25:28.709Z,99427.34
2022-09-30T04:27:55.265Z,99424.84
2022-09-30T04:30:25.660Z,99420.28
2022-09-30T04:32:53.909Z,99421.47
2022-09-30T04:35:20.495Z,99417.75
2022-09-30T04:37:47.549Z,99429.56
2022-09-30T04:40:16.064Z,99436.66
2022-09-30T04:42:43.140Z,99435.13
2022-09-30T04:45:11.610Z,99436.66
2022-09-30T04:47:38.207Z,99448.97
2022-09-30T04:50:05.903Z,99445.25
2022-09-30T04:52:32.389Z,99457.38
2022-09-30T04:54:58.863Z,99470.56
2022-09-30T04:57:25.478Z,99476.44
2022-09-30T04:59:52.328Z,99478.78
2022-09-30T05:02:18.969Z,99465.09
2022-09-30T05:04:45.622Z,99465.94
2022-09-30T05:07:12.127Z,99463.25
2022-09-30T05:09:38.738Z,99462.56
2022-09-30T05:12:05.264Z,99467.47
2022-09-30T05:14:32.212Z,99461.69
2022-09-30T05:16:58.782Z,99471.31
2022-09-30T05:19:25.562Z,99463.69
2022-09-30T05:21:52.572Z,99470.75
2022-09-30T05:24:19.133Z,99474.81
2022-09-30T05:26:45.630Z,99473.13
2022-09-30T05:29:12.270Z,99468.22
2022-09-30T05:31:38.905Z,99475.13
2022-09-30T05:34:05.493Z,99481.00
2022-09-30T05:36:32.284Z,99484.38
2022-09-30T05:38:58.800Z,99482.34
2022-09-30T05:41:25.375Z,99495.50
2022-09-30T05:43:52.051Z,99490.94
2022-09-30T05:46:19.954Z,99491.97
2022-09-30T05:48:46.944Z,99488.06
2022-09-30T05:51:13.822Z,99493.28
2022-09-30T05:53:41.240Z,99483.78
2022-09-30T05:56:09.718Z,99485.16
2022-09-30T05:58:37.765Z,99483.13
2022-09-30T06:01:14.262Z,99482.13
2022-09-30T06:03:42.713Z,99482.13
2022-09-30T06:06:10.153Z,99492.75
2022-09-30T06:08:36.748Z,99498.84
2022-09-30T06:11:11.884Z,99490.56
2022-09-30T06:13:39.765Z,99493.75
2022-09-30T06:16:07.512Z,99491.91
2022-09-30T06:18:34.784Z,99492.56
2022-09-30T06:21:04.159Z,99498.63
2022-09-30T06:23:35.088Z,99485.09
2022-09-30T06:26:02.692Z,99484.91
2022-09-30T06:28:29.190Z,99496.38
2022-09-30T06:30:56.095Z,99498.28
2022-09-30T06:33:22.823Z,99505.53
2022-09-30T06:35:50.955Z,99499.78
2022-09-30T06:38:18.043Z,99511.72
2022-09-30T06:40:45.915Z,99510.53
2022-09-30T06:43:12.483Z,99510.53
2022-09-30T06:45:39.088Z,99515.59
2022-09-30T06:48:08.312Z,99519.81
2022-09-30T06:50:35.083Z,99519.44
2022-09-30T06:53:06.193Z,99522.13
2022-09-30T06:55:33.964Z,99530.91
2022-09-30T06:58:00.551Z,99527.38
2022-09-30T07:00:28.972Z,99542.41
2022-09-30T07:02:59.317Z,99532.41
2022-09-30T07:05:26.429Z,99539.31
2022-09-30T07:07:54.025Z,99544.56
2022-09-30T07:10:20.622Z,99548.28
2022-09-30T07:12:51.469Z,99552.84
2022-09-30T07:15:22.945Z,99548.28
2022-09-30T07:17:59.142Z,99555.56
2022-09-30T07:20:25.760Z,99548.13
2022-09-30T07:22:52.296Z,99557.91
2022-09-30T07:25:19.901Z,99563.31
2022-09-30T07:27:46.852Z,99562.31
2022-09-30T07:30:22.817Z,99572.09
2022-09-30T07:32:53.522Z,99570.91
2022-09-30T07:35:20.766Z,99575.47
2022-09-30T07:37:47.724Z,99578.00
2022-09-30T07:40:15.189Z,99581.53
2022-09-30T07:42:45.878Z,99577.34
2022-09-30T07:45:16.028Z,99582.56
2022-09-30T07:47:42.624Z,99583.22
2022-09-30T07:50:10.812Z,99584.56
2022-09-30T07:52:37.421Z,99587.09
2022-09-30T07:55:04.341Z,99595.88
2022-09-30T07:57:30.848Z,99601.94
2022-09-30T07:59:57.335Z,99598.91
2022-09-30T08:02:24.737Z,99601.13
2022-09-30T08:04:51.294Z,99604.16
2022-09-30T08:07:18.548Z,99603.81
2022-09-30T08:09:45.241Z,99597.91
2022-09-30T08:12:11.863Z,99608.38
2022-09-30T08:14:38.360Z,99616.97
2022-09-30T08:17:05.010Z,99615.59
2022-09-30T08:19:33.728Z,99615.22
2022-09-30T08:22:00.432Z,99611.69
2022-09-30T08:24:27.439Z,99619.97
2022-09-30T08:26:54.839Z,99623.88
2022-09-30T08:29:42.523Z,99627.44
2022-09-30T08:32:08.711Z,99638.44
2022-09-30T08:34:35.766Z,99639.09
2022-09-30T08:37:08.397Z,99642.66
2022-09-30T08:39:35.785Z,99640.59
2022-09-30T08:42:37.930Z,99653.97
2022-09-30T08:45:37.388Z,99653.63
2022-09-30T08:48:42.200Z,99661.53
2022-09-30T08:51:33.286Z,99668.47
2022-09-30T08:54:03.030Z,99669.66
2022-09-30T08:56:31.556Z,99672.03
2022-09-30T08:59:13.285Z,99662.53
2022-09-30T09:01:45.610Z,99666.56
2022-09-30T09:04:13.879Z,99662.28
2022-09-30T09:06:54.823Z,99672.75
2022-09-30T09:09:35.583Z,99668.84
2022-09-30T09:12:15.658Z,99660.13
2022-09-30T09:15:15.115Z,99677.97
2022-09-30T09:18:04.557Z,99683.84
2022-09-30T09:20:41.275Z,99683.22
2022-09-30T09:23:12.434Z,99677.25
2022-09-30T09:25:39.610Z,99696.53
2022-09-30T09:28:18.558Z,99694.94
2022-09-30T09:30:52.014Z,99692.34
2022-09-30T09:33:26.213Z,99687.50
2022-09-30T09:35:58.079Z,99696.44
2022-09-30T09:38:36.115Z,99700.66
2022-09-30T09:41:33.399Z,99703.38
2022-09-30T09:44:09.831Z,99708.16
2022-09-30T09:46:47.966Z,99697.97
2022-09-30T09:49:20.621Z,99700.66
2022-09-30T09:51:59.408Z,99714.31
2022-09-30T09:54:31.180Z,99720.84
2022-09-30T09:57:07.351Z,99721.22
2022-09-30T09:59:33.820Z,99725.78
2022-09-30T10:02:00.413Z,99737.34
2022-09-30T10:04:30.518Z,99727.25
2022-09-30T10:07:02.151Z,99725.19
2022-09-30T10:09:31.301Z,99723.81
2022-09-30T10:12:06.918Z,99737.00
2022-09-30T10:14:46.348Z,99724.22
2022-09-30T10:17:40.802Z,99725.16
2022-09-30T10:20:16.444Z,99724.59
2022-09-30T10:22:43.279Z,99731.16
2022-09-30T10:25:19.133Z,99734.16
2022-09-30T10:28:03.969Z,99730.44
2022-09-30T10:30:39.300Z,99735.00
2022-09-30T10:33:14.490Z,99748.25
2022-09-30T10:36:17.353Z,99761.47
2022-09-30T10:39:01.165Z,99764.38
2022-09-30T10:41:33.133Z,99753.50
2022-09-30T10:44:03.121Z,99765.88
2022-09-30T10:46:37.643Z,99764.66
2022-09-30T10:49:32.007Z,99766.25
2022-09-30T10:52:01.179Z,99762.91
2022-09-30T10:54:44.645Z,99767.41
2022-09-30T10:57:23.587Z,99762.53
2022-09-30T10:59:54.867Z,99763.84
2022-09-30T11:02:44.409Z,99769.03
2022-09-30T11:05:24.542Z,99781.16
2022-09-30T11:07:57.170Z,99794.38
2022-09-30T11:10:51.481Z,99804.84
2022-09-30T11:13:30.023Z,99815.72
2022-09-30T11:16:13.569Z,99825.28
2022-09-30T11:18:56.231Z,99829.25
2022-09-30T11:21:28.720Z,99839.63
2022-09-30T11:24:03.306Z,99844.63
2022-09-30T11:27:11.591Z,99851.09
2022-09-30T11:29:47.211Z,99851.66
2022-09-30T11:32:22.522Z,99862.91
2022-09-30T11:35:09.796Z,99862.44
2022-09-30T11:37:51.536Z,99857.19
2022-09-30T11:40:28.534Z,99865.91
2022-09-30T11:43:07.435Z,99869.66
2022-09-30T11:45:46.779Z,99871.16
2022-09-30T11:48:32.977Z,99872.34
2022-09-30T11:51:17.641Z,99881.47
2022-09-30T11:53:53.308Z,99893.59
2022-09-30T11:56:42.487Z,99898.69
2022-09-30T11:59:31.966Z,99897.81
2022-09-30T12:02:03.911Z,99896.41
2022-09-30T12:04:35.793Z,99889.84
2022-09-30T12:07:41.683Z,99896.22
2022-09-30T12:10:21.443Z,99906.16
2022-09-30T12:12:53.687Z,99907.16
2022-09-30T12:15:23.967Z,99904.59
2022-09-30T12:18:09.601Z,99911.72
2022-09-30T12:20:59.600Z,99920.38
2022-09-30T12:23:39.701Z,99919.03
2022-09-30T12:26:06.558Z,99928.44
2022-09-30T12:29:03.804Z,99925.13
2022-09-30T12:32:04.248Z,99921.16
2022-09-30T12:35:08.010Z,99921.94
2022-09-30T12:37:35.490Z,99923.88
2022-09-30T12:40:40.767Z,99928.13
2022-09-30T12:43:07.186Z,99930.88
2022-09-30T12:45:48.868Z,99924.31
2022-09-30T12:48:20.946Z,99933.91
2022-09-30T12:50:57.792Z,99940.19
2022-09-30T12:53:33.915Z,99950.03
2022-09-30T12:56:10.918Z,99955.91
2022-09-30T12:58:43.987Z,99962.00
2022-09-30T13:01:22.611Z,99969.53
2022-09-30T13:03:53.165Z,99973.16
2022-09-30T13:06:21.975Z,99982.81
2022-09-30T13:08:57.264Z,99981.41
2022-09-30T13:11:37.439Z,99980.06
2022-09-30T13:14:36.169Z,99969.28
2022-09-30T13:17:08.440Z,99973.13
2022-09-30T13:19:40.408Z,99969.88
2022-09-30T13:22:18.958Z,99975.94
2022-09-30T13:25:00.698Z,99985.22
2022-09-30T13:27:34.656Z,99993.38
2022-09-30T13:30:03.044Z,100009.81
2022-09-30T13:32:37.823Z,100018.56
2022-09-30T13:35:33.193Z,100021.75
2022-09-30T13:38:11.879Z,100036.72
2022-09-30T13:41:02.965Z,100037.13
2022-09-30T13:43:56.532Z,100035.38
2022-09-30T13:46:30.423Z,100032.38
2022-09-30T13:49:00.549Z,100036.16
2022-09-30T13:51:33.201Z,100039.63
2022-09-30T13:54:09.938Z,100033.22
2022-09-30T13:56:40.806Z,100033.81
2022-09-30T13:59:10.103Z,100026.59
2022-09-30T14:01:37.632Z,100029.56
2022-09-30T14:04:47.504Z,100016.09
2022-09-30T14:07:18.163Z,100021.06
2022-09-30T14:09:47.668Z,100012.81
2022-09-30T14:12:32.663Z,100009.72
2022-09-30T14:15:20.055Z,100013.81
2022-09-30T14:18:23.272Z,100009.41
2022-09-30T14:21:24.313Z,100030.09
2022-09-30T14:24:17.672Z,100026.25
2022-09-30T14:27:00.855Z,100016.47
2022-09-30T14:29:57.141Z,100024.44
2022-09-30T14:32:30.637Z,100015.47
2022-09-30T14:35:00.080Z,100020.38
2022-09-30T14:37:30.999Z,100014.41
2022-09-30T14:39:58.464Z,100010.19
2022-09-30T14:42:36.097Z,100020.25
2022-09-30T14:45:05.637Z,100016.22
2022-09-30T14:47:45.483Z,100014.88
2022-09-30T14:50:20.143Z,100015.63
2022-09-30T14:52:50.109Z,100021.44
2022-09-30T14:55:35.095Z,100022.56
2022-09-30T14:58:19.951Z,100030.50
2022-09-30T15:00:50.458Z,100031.56
2022-09-30T15:03:17.107Z,100035.91
2022-09-30T15:05:43.686Z,100041.06
2022-09-30T15:08:12.922Z,100032.59
2022-09-30T15:10:47.275Z,100045.53
2022-09-30T15:13:14.929Z,100043.88
2022-09-30T15:15:41.527Z,100042.22
2022-09-30T15:18:26.244Z,100054.50
2022-09-30T15:20:57.190Z,100060.72
2022-09-30T15:23:31.183Z,100060.34
2022-09-30T15:25:58.950Z,100065.91
2022-09-30T15:28:26.165Z,100066.97
2022-09-30T15:30:56.508Z,100068.03
2022-09-30T15:33:31.981Z,100069.13
2022-09-30T15:36:07.362Z,100073.53
2022-09-30T15:38:37.245Z,100072.47
2022-09-30T15:41:09.893Z,100081.75
2022-09-30T15:43:39.505Z,100088.38
2022-09-30T15:46:26.221Z,100103.84
2022-09-30T15:48:55.361Z,100091.28
2022-09-30T15:51:26.475Z,100089.56
2022-09-30T15:53:53.457Z,100094.44
2022-09-30T15:56:19.956Z,100095.44
2022-09-30T15:59:03.911Z,100101.44
2022-09-30T16:01:37.011Z,100105.03
2022-09-30T16:04:11.055Z,100115.16
2022-09-30T16:06:45.730Z,100116.91
2022-09-30T16:09:18.659Z,100121.38
2022-09-30T16:11:56.198Z,100124.72
2022-09-30T16:14:28.644Z,100123.41
2022-09-30T16:16:59.374Z,100122.06
2022-09-30T16:19:28.517Z,100130.31
2022-09-30T16:21:55.728Z,100126.09
2022-09-30T16:24:22.154Z,100129.88
2022-09-30T16:26:53.155Z,100133.59
2022-09-30T16:29:19.748Z,100142.19
2022-09-30T16:31:49.915Z,100137.03
2022-09-30T16:34:23.904Z,100147.13
2022-09-30T16:36:52.667Z,100146.28
2022-09-30T16:39:19.788Z,100143.16
2022-09-30T16:41:46.829Z,100146.78
2022-09-30T16:44:13.866Z,100147.16
2022-09-30T16:46:40.416Z,100141.78
2022-09-30T16:49:15.585Z,100137.25
2022-09-30T16:51:42.985Z,100130.50
2022-09-30T16:54:10.402Z,100148.84
2022-09-30T16:56:36.914Z,100159.88
2022-09-30T16:59:04.457Z,100157.09
2022-09-30T17:01:31.011Z,100166.16
2022-09-30T17:03:58.382Z,100168.75
2022-09-30T17:06:30.482Z,100170.34
2022-09-30T17:08:58.083Z,100178.88
2022-09-30T17:11:33.249Z,100176.31
2022-09-30T17:14:01.294Z,100168.53
2022-09-30T17:16:28.528Z,100168.41
2022-09-30T17:18:55.395Z,100167.59
2022-09-30T17:21:25.067Z,100170.38
2022-09-30T17:23:52.344Z,100171.72
2022-09-30T17:26:18.864Z,100176.78
2022-09-30T17:28:46.259Z,100168.00
2022-09-30T17:31:12.927Z,100175.78
2022-09-30T17:33:41.064Z,100188.81
2022-09-30T17:36:10.406Z,100175.63
2022-09-30T17:38:37.820Z,100180.53
2022-09-30T17:41:23.794Z,100184.63
2022-09-30T17:43:50.358Z,100193.44
2022-09-30T17:46:21.194Z,100188.31
2022-09-30T17:48:48.650Z,100187.31
2022-09-30T17:51:16.494Z,100186.97
2022-09-30T17:53:44.509Z,100206.94
2022-09-30T17:56:20.068Z,100201.00
2022-09-30T17:58:48.964Z,100201.00
2022-09-30T18:01:17.980Z,100213.66
2022-09-30T18:03:45.834Z,100227.00
2022-09-30T18:06:14.733Z,100211.31
2022-09-30T18:08:42.712Z,100209.56
2022-09-30T18:11:09.230Z,100219.88
2022-09-30T18:13:35.774Z,100221.44
2022-09-30T18:16:06.859Z,100221.22
2022-09-30T18:18:36.471Z,100224.59
2022-09-30T18:21:03.003Z,100225.41
2022-09-30T18:23:29.531Z,100213.38
2022-09-30T18:25:57.080Z,100215.00
2022-09-30T18:28:23.670Z,100214.47
2022-09-30T18:30:50.246Z,100228.16
2022-09-30T18:33:18.734Z,100230.97
2022-09-30T18:35:46.499Z,100238.28
2022-09-30T18:38:14.946Z,100226.75
2022-09-30T18:40:46.070Z,100224.38
2022-09-30T18:43:14.285Z,100232.75
2022-09-30T18:45:43.581Z,100246.63
2022-09-30T18:48:11.057Z,100250.31
2022-09-30T18:50:38.654Z,100248.94
2022-09-30T18:53:09.859Z,100251.13
2022-09-30T18:55:38.278Z,100254.50
2022-09-30T18:58:05.350Z,100254.28
2022-09-30T19:00:31.985Z,100252.41
2022-09-30T19:02:58.515Z,100258.81
2022-09-30T19:05:25.086Z,100261.38
2022-09-30T19:07:53.559Z,100274.41
2022-09-30T19:10:20.352Z,100270.72
2022-09-30T19:12:46.881Z,100263.06
2022-09-30T19:15:17.660Z,100253.56
2022-09-30T19:17:45.375Z,100265.91
2022-09-30T19:20:14.028Z,100283.88
2022-09-30T19:22:40.688Z,100277.75
2022-09-30T19:25:11.106Z,100281.16
2022-09-30T19:27:38.501Z,100284.84
2022-09-30T19:30:12.011Z,100304.50
2022-09-30T19:32:38.795Z,100324.03
2022-09-30T19:35:10.292Z,100308.09
2022-09-30T19:37:37.262Z,100312.50
2022-09-30T19:40:18.730Z,100309.19
2022-09-30T19:42:47.666Z,100300.94
2022-09-30T19:45:16.357Z,100291.34
2022-09-30T19:47:43.082Z,100289.00
2022-09-30T19:50:09.814Z,100292.88
2022-09-30T19:52:42.013Z,100305.16
2022-09-30T19:55:16.839Z,100310.91
2022-09-30T19:57:43.784Z,100312.03
2022-09-30T20:00:12.952Z,100305.78
2022-09-30T20:02:39.684Z,100301.22
2022-09-30T20:05:07.044Z,100293.25
2022-09-30T20:07:37.986Z,100299.38
2022-09-30T20:10:04.961Z,100294.97
2022-09-30T20:12:31.499Z,100298.66
2022-09-30T20:15:16.314Z,100293.25
2022-09-30T20:17:42.721Z,100298.53
2022-09-30T20:20:28.528Z,100307.34
2022-09-30T20:22:55.076Z,100296.97
2022-09-30T20:25:21.633Z,100291.44
2022-09-30T20:27:52.234Z,100281.59
2022-09-30T20:30:19.980Z,100269.09
2022-09-30T20:32:46.522Z,100290.03
2022-09-30T20:35:13.174Z,100290.88
2022-09-30T20:37:40.855Z,100281.91
2022-09-30T20:40:09.320Z,100285.16
2022-09-30T20:42:37.899Z,100279.59
2022-09-30T20:45:10.649Z,100272.66
2022-09-30T20:47:38.671Z,100267.66
2022-09-30T20:50:06.684Z,100258.66
2022-09-30T20:52:33.243Z,100252.41
2022-09-30T20:55:00.342Z,100266.94
2022-09-30T20:57:31.550Z,100261.69
2022-09-30T20:59:59.939Z,100254.41
2022-09-30T21:02:29.853Z,100270.78
2022-09-30T21:04:57.985Z,100273.47
2022-09-30T21:07:25.317Z,100271.09
2022-09-30T21:09:52.410Z,100270.97
2022-09-30T21:12:19.307Z,100273.66
2022-09-30T21:14:46.186Z,100276.81
2022-09-30T21:17:12.699Z,100282.41
2022-09-30T21:19:40.088Z,100281.53
2022-09-30T21:22:07.117Z,100276.13
2022-09-30T21:24:33.776Z,100274.59
2022-09-30T21:27:01.597Z,100270.25
2022-09-30T21:29:30.468Z,100266.88
2022-09-30T21:31:57.223Z,100263.25
2022-09-30T21:34:24.436Z,100275.75
2022-09-30T21:36:50.972Z,100280.63
2022-09-30T21:39:17.580Z,100286.34
2022-09-30T21:41:44.759Z,100295.69
2022-09-30T21:44:11.302Z,100307.41
2022-09-30T21:46:37.886Z,100296.91
2022-09-30T21:49:18.127Z,100280.00
2022-09-30T21:51:45.347Z,100276.44
2022-09-30T21:54:13.693Z,100285.09
2022-09-30T21:56:42.703Z,100266.19
2022-09-30T21:59:10.569Z,100271.75
2022-09-30T22:01:39.727Z,100269.03
2022-09-30T22:04:06.686Z,100266.19
2022-09-30T22:06:33.210Z,100282.56
2022-09-30T22:09:03.048Z,100291.50
2022-09-30T22:11:31.537Z,100292.84
2022-09-30T22:14:00.242Z,100292.34
2022-09-30T22:16:34.864Z,100292.50
2022-09-30T22:19:05.069Z,100282.72
2022-09-30T22:21:33.649Z,100271.75
2022-09-30T22:24:02.183Z,100271.59
2022-09-30T22:26:31.493Z,100262.13
2022-09-30T22:29:01.382Z,100256.88
2022-09-30T22:31:29.899Z,100249.09
2022-09-30T22:34:25.779Z,100254.66
2022-09-30T22:37:11.764Z,100263.78
2022-09-30T22:39:38.299Z,100264.78
2022-09-30T22:42:05.033Z,100271.22
2022-09-30T22:44:36.906Z,100263.25
2022-09-30T22:47:04.482Z,100261.56
2022-09-30T22:49:34.324Z,100260.03
2022-09-30T22:52:02.061Z,100257.00
2022-09-30T22:54:29.165Z,100251.44
2022-09-30T22:56:56.113Z,100241.47
2022-09-30T22:59:23.605Z,100244.19
2022-09-30T23:01:50.793Z,100241.94
2022-09-30T23:04:18.026Z,100245.88
2022-09-30T23:06:52.123Z,100254.81
2022-09-30T23:09:20.848Z,100257.16
2022-09-30T23:11:48.456Z,100267.97
2022-09-30T23:14:14.932Z,100274.22
2022-09-30T23:16:41.892Z,100276.91
2022-09-30T23:19:08.495Z,100268.66
2022-09-30T23:21:35.829Z,100261.06
2022-09-30T23:24:02.796Z,100260.41
2022-09-30T23:26:31.153Z,100257.38
2022-09-30T23:29:00.112Z,100256.34
2022-09-30T23:31:27.755Z,100256.88
2022-09-30T23:33:56.824Z,100250.50
2022-09-30T23:36:32.167Z,100241.38
2022-09-30T23:39:09.201Z,100244.91
2022-09-30T23:41:36.022Z,100243.06
2022-09-30T23:44:04.319Z,100234.91
2022-09-30T23:46:31.718Z,100235.25
2022-09-30T23:48:58.363Z,100236.78
2022-09-30T23:51:24.918Z,100225.81
2022-09-30T23:53:51.466Z,100233.94
2022-09-30T23:56:19.321Z,100217.56
2022-09-30T23:58:46.793Z,100208.56
